Time;durP1;ratioP1;P1;durP2;ratioP2;P2;SDS_P1;SDS_P2;PMS_P1;PMS_P2;Temp;Humidity;BMP_temperature;BMP_pressure;BME280_temperature;BME280_humidity;BME280_pressure;Samples;Min_cycle;Max_cycle;Signal;HPM_P1;HPM_P2
2022/08/09 00:02:07;;;;;;;4.85;1.75;;;22.40;81.40;;;;;;4994754;28;20386;-68
2022/08/09 00:04:33;;;;;;;3.88;1.08;;;22.40;81.90;;;;;;4993582;28;20426;-68
2022/08/09 00:07:00;;;;;;;3.03;1.30;;;22.30;82.30;;;;;;4994764;28;20022;-68
2022/08/09 00:09:26;;;;;;;8.68;1.73;;;22.30;82.90;;;;;;4994578;28;20023;-68
2022/08/09 00:11:51;;;;;;;2.35;1.27;;;22.30;83.20;;;;;;4994641;28;20117;-68
2022/08/09 00:14:17;;;;;;;3.05;1.05;;;22.20;83.50;;;;;;4994448;28;20026;-68
2022/08/09 00:16:43;;;;;;;2.17;1.20;;;22.10;84.20;;;;;;4994697;28;20026;-69
2022/08/09 00:19:09;;;;;;;3.40;1.40;;;22.20;84.10;;;;;;4994447;28;20081;-68
2022/08/09 00:21:36;;;;;;;3.17;1.38;;;22.10;84.80;;;;;;4994711;28;20026;-68
2022/08/09 00:24:02;;;;;;;2.83;1.25;;;22.20;84.60;;;;;;4994387;28;20022;-69
2022/08/09 00:26:29;;;;;;;3.22;1.17;;;22.20;84.60;;;;;;4994475;28;20045;-68
2022/08/09 00:28:54;;;;;;;8.27;1.60;;;22.10;84.80;;;;;;4994132;28;20015;-68
2022/08/09 00:31:21;;;;;;;5.25;1.40;;;22.10;85.20;;;;;;4994475;28;20026;-69
2022/08/09 00:33:51;;;;;;;2.40;1.73;;;22.10;85.10;;;;;;4994368;28;20101;-68
2022/08/09 00:36:18;;;;;;;3.83;1.65;;;22.10;85.80;;;;;;4994159;28;20140;-68
2022/08/09 00:38:44;;;;;;;3.75;1.70;;;22.00;85.80;;;;;;4994102;28;20106;-68
2022/08/09 00:41:12;;;;;;;5.32;1.98;;;22.00;85.70;;;;;;4994223;28;20113;-68
2022/08/09 00:43:39;;;;;;;3.90;1.80;;;21.90;86.60;;;;;;4994004;28;20061;-68
2022/08/09 00:46:05;;;;;;;3.95;1.80;;;21.90;86.60;;;;;;4994218;28;20050;-68
2022/08/09 00:48:31;;;;;;;4.85;1.65;;;22.00;86.30;;;;;;4993977;28;20464;-68
2022/08/09 00:51:02;;;;;;;2.97;1.50;;;22.00;86.30;;;;;;4994325;28;20057;-68
2022/08/09 00:53:27;;;;;;;5.82;1.92;;;22.00;86.40;;;;;;4994046;28;20505;-68
2022/08/09 00:55:53;;;;;;;3.08;1.77;;;22.00;86.40;;;;;;4994090;28;20023;-68
2022/08/09 00:58:19;;;;;;;3.15;1.65;;;22.10;85.90;;;;;;4981876;28;20050;-68
2022/08/09 01:00:44;;;;;;;3.38;1.83;;;22.00;86.20;;;;;;4973566;28;20121;-68
2022/08/09 01:03:18;;;;;;;9.20;1.55;;;22.00;86.20;;;;;;4970621;28;20030;-67
2022/08/09 01:05:55;;;;;;;4.20;2.15;;;22.00;86.50;;;;;;4973946;28;20038;-68
2022/08/09 01:08:39;;;;;;;2.88;1.70;;;21.90;87.00;;;;;;4971632;28;20049;-70
2022/08/09 01:11:14;;;;;;;2.58;1.45;;;21.80;87.30;;;;;;4971931;28;20431;-68
2022/08/09 01:13:54;;;;;;;4.72;2.00;;;21.90;86.90;;;;;;4970644;28;20030;-68
2022/08/09 01:16:25;;;;;;;5.68;1.65;;;22.20;86.10;;;;;;4971543;28;20547;-67
2022/08/09 01:18:53;;;;;;;3.95;1.98;;;22.30;85.20;;;;;;4970112;28;20070;-68
2022/08/09 01:21:30;;;;;;;5.63;2.17;;;22.20;85.20;;;;;;4969585;28;20125;-68
2022/08/09 01:24:03;;;;;;;3.80;1.83;;;22.20;85.60;;;;;;4967710;28;20027;-68
2022/08/09 01:27:08;;;;;;;7.50;2.00;;;22.30;85.10;;;;;;4967904;28;20030;-68
2022/08/09 01:29:45;;;;;;;5.53;1.63;;;22.40;84.80;;;;;;4965972;28;20086;-67
2022/08/09 01:32:14;;;;;;;4.38;1.98;;;22.40;84.10;;;;;;4964698;28;20050;-68
2022/08/09 01:34:42;;;;;;;4.07;2.05;;;22.40;84.00;;;;;;4971578;28;20050;-69
2022/08/09 01:37:11;;;;;;;5.03;2.40;;;22.20;85.00;;;;;;4974007;28;20553;-69
2022/08/09 01:39:39;;;;;;;5.07;2.10;;;21.90;86.30;;;;;;4973492;28;20109;-69
2022/08/09 01:42:07;;;;;;;7.18;2.35;;;21.80;87.10;;;;;;4973591;28;20042;-69
2022/08/09 01:44:33;;;;;;;3.22;1.70;;;21.60;88.00;;;;;;4973140;28;20054;-69
2022/08/09 01:47:02;;;;;;;4.63;2.20;;;21.50;88.30;;;;;;4973648;28;20480;-69
2022/08/09 01:49:30;;;;;;;4.68;2.65;;;21.40;88.70;;;;;;4973809;28;20399;-69
2022/08/09 01:52:02;;;;;;;4.47;2.53;;;21.40;88.90;;;;;;4976548;28;20033;-69
2022/08/09 01:54:46;;;;;;;5.73;2.63;;;21.40;89.00;;;;;;4977323;28;20018;-68
2022/08/09 01:57:18;;;;;;;3.83;2.45;;;21.40;89.20;;;;;;4977870;28;20019;-69
2022/08/09 01:59:47;;;;;;;4.85;2.45;;;21.30;89.30;;;;;;4977551;28;20483;-69
2022/08/09 02:02:15;;;;;;;4.82;2.63;;;21.30;89.40;;;;;;4977655;28;20031;-69
2022/08/09 02:04:42;;;;;;;4.40;2.53;;;21.30;89.60;;;;;;4977282;28;20023;-69
2022/08/09 02:07:14;;;;;;;5.72;2.47;;;21.30;89.40;;;;;;4977513;28;20399;-69
2022/08/09 02:10:05;;;;;;;4.25;2.92;;;21.30;89.50;;;;;;4977201;28;20030;-69
2022/08/09 02:12:33;;;;;;;5.55;2.35;;;21.20;89.70;;;;;;4970369;28;20400;-69
2022/08/09 02:15:01;;;;;;;6.20;2.75;;;21.20;89.70;;;;;;4977275;28;20030;-70
2022/08/09 02:17:30;;;;;;;5.00;2.97;;;21.20;89.70;;;;;;4976325;28;20400;-69
2022/08/09 02:19:56;;;;;;;4.57;2.60;;;21.20;89.60;;;;;;4977800;28;20361;-71
2022/08/09 02:22:27;;;;;;;7.35;2.92;;;21.20;89.50;;;;;;4978449;28;20026;-71
2022/08/09 02:24:55;;;;;;;6.47;3.42;;;21.10;89.60;;;;;;4977061;28;20460;-70
2022/08/09 02:27:25;;;;;;;6.63;3.03;;;21.20;89.80;;;;;;4976990;28;20082;-70
2022/08/09 02:29:51;;;;;;;5.57;3.08;;;21.20;89.80;;;;;;4976958;28;20027;-70
2022/08/09 02:32:20;;;;;;;4.07;3.22;;;21.20;89.40;;;;;;4977331;28;20183;-70
2022/08/09 02:34:49;;;;;;;3.83;2.80;;;21.10;89.60;;;;;;4977027;28;20029;-68
2022/08/09 02:37:19;;;;;;;5.53;2.90;;;21.00;90.00;;;;;;4975743;28;20443;-69
2022/08/09 02:39:49;;;;;;;4.50;3.22;;;21.10;89.80;;;;;;4976468;28;20036;-69
2022/08/09 02:42:24;;;;;;;7.85;3.80;;;20.90;90.10;;;;;;4977042;28;20122;-69
2022/08/09 02:44:55;;;;;;;5.80;3.13;;;21.00;90.10;;;;;;4976802;28;20019;-69
2022/08/09 02:47:22;;;;;;;4.87;3.40;;;21.00;90.00;;;;;;4976844;28;20025;-69
2022/08/09 02:50:02;;;;;;;7.28;3.40;;;20.90;90.00;;;;;;4976818;28;20266;-69
2022/08/09 02:52:36;;;;;;;6.05;3.40;;;21.00;90.00;;;;;;4976482;28;20480;-69
2022/08/09 02:55:04;;;;;;;3.40;3.00;;;20.90;90.00;;;;;;4976673;28;20023;-68
2022/08/09 02:57:31;;;;;;;4.70;3.70;;;20.90;90.00;;;;;;4976586;28;20099;-69
2022/08/09 02:59:58;;;;;;;3.40;3.10;;;20.90;90.00;;;;;;4976258;28;20066;-69
2022/08/09 03:02:26;;;;;;;10.43;4.38;;;20.90;90.00;;;;;;4975563;28;20476;-69
2022/08/09 03:04:54;;;;;;;5.95;3.30;;;20.70;90.30;;;;;;4976446;28;20106;-69
2022/08/09 03:07:21;;;;;;;4.97;3.75;;;20.70;90.20;;;;;;4974871;28;20033;-68
2022/08/09 03:09:48;;;;;;;5.22;3.83;;;20.80;90.40;;;;;;4976587;28;20117;-69
2022/08/09 03:12:14;;;;;;;5.43;3.70;;;20.70;90.50;;;;;;4976263;28;20023;-69
2022/08/09 03:14:41;;;;;;;6.18;3.42;;;20.70;90.20;;;;;;4976320;28;20027;-69
2022/08/09 03:17:07;;;;;;;7.07;4.05;;;20.70;90.20;;;;;;4976213;28;20093;-69
2022/08/09 03:19:34;;;;;;;6.40;3.40;;;20.70;90.20;;;;;;4976210;28;20038;-69
2022/08/09 03:22:00;;;;;;;6.35;3.70;;;20.70;90.20;;;;;;4966062;28;20399;-69
2022/08/09 03:24:25;;;;;;;4.07;3.45;;;20.70;90.30;;;;;;4971748;28;20030;-69
2022/08/09 03:26:52;;;;;;;6.38;3.75;;;20.60;90.30;;;;;;4974083;28;20539;-69
2022/08/09 03:29:18;;;;;;;4.97;3.58;;;20.60;90.20;;;;;;4975664;28;20042;-68
2022/08/09 03:31:44;;;;;;;5.68;3.70;;;20.70;90.20;;;;;;4975928;28;20026;-69
2022/08/09 03:34:10;;;;;;;4.25;3.70;;;20.70;90.20;;;;;;4975910;28;20027;-68
2022/08/09 03:36:36;;;;;;;4.07;3.72;;;20.60;90.20;;;;;;4975411;28;20042;-68
2022/08/09 03:39:03;;;;;;;5.43;3.88;;;20.60;90.20;;;;;;4976008;28;20022;-68
2022/08/09 03:41:29;;;;;;;6.40;4.10;;;20.70;90.20;;;;;;4975937;28;20066;-69
2022/08/09 03:43:54;;;;;;;5.30;3.75;;;20.50;90.30;;;;;;4976015;28;20069;-69
2022/08/09 03:46:20;;;;;;;7.00;3.78;;;20.50;90.30;;;;;;4975572;28;20030;-69
2022/08/09 03:48:53;;;;;;;7.30;4.00;;;20.50;90.40;;;;;;4975512;28;20031;-69
2022/08/09 03:51:21;;;;;;;5.68;4.07;;;20.50;90.40;;;;;;4975370;28;20085;-69
2022/08/09 03:53:47;;;;;;;6.07;3.90;;;20.40;90.50;;;;;;4975626;28;20022;-69
2022/08/09 03:56:13;;;;;;;8.73;4.00;;;20.40;90.50;;;;;;4975495;28;20026;-70
2022/08/09 03:58:39;;;;;;;7.28;4.07;;;20.40;90.50;;;;;;4975349;28;20090;-69
2022/08/09 04:01:05;;;;;;;6.80;4.10;;;20.40;90.50;;;;;;4975462;28;20122;-70
2022/08/09 04:03:33;;;;;;;5.75;3.88;;;20.50;90.50;;;;;;4975224;28;20050;-70
2022/08/09 04:05:59;;;;;;;7.18;4.10;;;20.40;90.60;;;;;;4975061;28;20042;-70
2022/08/09 04:08:24;;;;;;;7.78;3.78;;;20.40;90.60;;;;;;4975182;28;20030;-70
2022/08/09 04:10:50;;;;;;;8.25;4.20;;;20.40;90.60;;;;;;4975238;28;20022;-70
2022/08/09 04:13:15;;;;;;;4.78;4.10;;;20.30;90.70;;;;;;4974729;28;20059;-70
2022/08/09 04:15:43;;;;;;;6.15;4.10;;;20.30;90.60;;;;;;4975181;28;20027;-68
2022/08/09 04:18:10;;;;;;;7.38;4.22;;;20.30;90.80;;;;;;4975088;28;20483;-69
2022/08/09 04:20:35;;;;;;;5.35;4.15;;;20.20;90.80;;;;;;4974910;28;20038;-68
2022/08/09 04:23:01;;;;;;;6.65;4.22;;;20.30;90.70;;;;;;4975253;28;20073;-69
2022/08/09 04:25:27;;;;;;;5.68;4.15;;;20.30;90.80;;;;;;4975776;28;20113;-69
2022/08/09 04:27:52;;;;;;;8.55;4.45;;;20.20;91.20;;;;;;4974761;28;20507;-69
2022/08/09 04:30:21;;;;;;;6.28;4.45;;;20.20;91.00;;;;;;4974991;28;20023;-69
2022/08/09 04:32:48;;;;;;;11.38;4.88;;;20.30;90.80;;;;;;4974862;28;20023;-70
2022/08/09 04:35:14;;;;;;;6.85;4.75;;;20.20;90.90;;;;;;4974559;28;20043;-70
2022/08/09 04:37:39;;;;;;;6.25;4.60;;;20.20;90.90;;;;;;4974570;28;20035;-70
2022/08/09 04:40:06;;;;;;;6.53;3.95;;;20.20;91.00;;;;;;4974624;28;20093;-68
2022/08/09 04:42:32;;;;;;;6.10;4.30;;;20.20;90.90;;;;;;4974588;28;20033;-70
2022/08/09 04:44:59;;;;;;;8.05;4.65;;;20.20;91.30;;;;;;4975030;28;20015;-69
2022/08/09 04:47:26;;;;;;;7.35;5.00;;;20.10;91.20;;;;;;4974465;28;20420;-69
2022/08/09 04:49:51;;;;;;;5.95;5.10;;;20.10;91.20;;;;;;4974420;28;20031;-69
2022/08/09 04:52:18;;;;;;;8.98;5.38;;;20.10;91.20;;;;;;4974622;28;20076;-69
2022/08/09 04:54:43;;;;;;;7.03;5.10;;;20.20;91.10;;;;;;4974440;28;20110;-69
2022/08/09 04:57:10;;;;;;;6.18;5.22;;;20.20;91.10;;;;;;4974616;28;20074;-69
2022/08/09 04:59:36;;;;;;;5.35;4.85;;;20.20;91.20;;;;;;4974368;28;20113;-69
2022/08/09 05:02:02;;;;;;;9.38;5.18;;;20.10;91.30;;;;;;4967786;28;20150;-69
2022/08/09 05:04:28;;;;;;;7.15;5.30;;;20.10;91.30;;;;;;4956766;28;20027;-69
2022/08/09 05:06:53;;;;;;;9.02;5.53;;;20.10;91.20;;;;;;4953808;29;20035;-69
2022/08/09 05:09:20;;;;;;;7.38;5.57;;;20.10;91.20;;;;;;4954780;29;20023;-69
2022/08/09 05:11:45;;;;;;;9.38;5.40;;;20.20;91.30;;;;;;4954881;28;20420;-69
2022/08/09 05:14:11;;;;;;;11.02;5.65;;;20.20;91.30;;;;;;4955216;29;20030;-70
2022/08/09 05:16:37;;;;;;;7.47;6.03;;;20.10;91.30;;;;;;4955062;29;20435;-70
2022/08/09 05:19:02;;;;;;;9.48;5.53;;;20.10;91.40;;;;;;4954806;29;20024;-69
2022/08/09 05:21:28;;;;;;;7.47;5.97;;;20.10;91.50;;;;;;4954952;29;20042;-70
2022/08/09 05:23:54;;;;;;;8.40;6.03;;;20.10;91.40;;;;;;4955432;28;20023;-70
2022/08/09 05:26:20;;;;;;;11.60;7.05;;;20.10;91.50;;;;;;4958916;29;20037;-70
2022/08/09 05:28:45;;;;;;;10.77;6.47;;;20.10;91.50;;;;;;4958884;29;20019;-69
2022/08/09 05:31:11;;;;;;;12.73;6.22;;;20.20;91.40;;;;;;4958840;29;20047;-69
2022/08/09 05:33:37;;;;;;;7.15;5.65;;;20.20;91.20;;;;;;4958486;29;20027;-68
2022/08/09 05:36:03;;;;;;;10.23;5.93;;;20.20;91.10;;;;;;4958779;29;20396;-68
2022/08/09 05:38:29;;;;;;;8.35;5.20;;;20.20;91.20;;;;;;4957566;29;20062;-68
2022/08/09 05:40:55;;;;;;;11.38;6.35;;;20.20;91.10;;;;;;4958698;29;20039;-68
2022/08/09 05:43:21;;;;;;;6.82;5.18;;;20.20;91.10;;;;;;4958739;29;20026;-68
2022/08/09 05:45:46;;;;;;;16.10;5.40;;;20.20;91.20;;;;;;4958530;29;20035;-68
2022/08/09 05:48:12;;;;;;;8.35;5.68;;;20.20;91.10;;;;;;4958675;29;20358;-68
2022/08/09 05:50:40;;;;;;;9.52;5.38;;;20.20;91.20;;;;;;4958419;29;20039;-69
2022/08/09 05:53:06;;;;;;;11.70;6.15;;;20.10;91.40;;;;;;4958673;29;20098;-69
2022/08/09 05:55:32;;;;;;;20.45;6.43;;;20.10;91.60;;;;;;4957125;29;20044;-69
2022/08/09 05:57:57;;;;;;;10.30;5.80;;;20.20;91.40;;;;;;4958458;29;20405;-69
2022/08/09 06:00:25;;;;;;;18.13;5.88;;;20.30;91.40;;;;;;4958100;29;20067;-69
2022/08/09 06:02:50;;;;;;;15.80;6.20;;;20.30;91.20;;;;;;4958285;29;20031;-69
2022/08/09 06:05:16;;;;;;;9.45;5.05;;;20.40;91.30;;;;;;4958403;29;20035;-69
2022/08/09 06:07:41;;;;;;;7.82;6.05;;;20.50;91.30;;;;;;4958216;29;20034;-69
2022/08/09 06:10:08;;;;;;;11.55;5.88;;;20.50;91.30;;;;;;4957852;29;20532;-69
2022/08/09 06:12:33;;;;;;;13.35;5.95;;;20.60;91.20;;;;;;4958239;29;20016;-68
2022/08/09 06:14:59;;;;;;;16.90;6.03;;;20.60;91.30;;;;;;4956461;29;20054;-69
2022/08/09 06:17:25;;;;;;;9.05;5.45;;;20.60;91.50;;;;;;4958054;29;20392;-69
2022/08/09 06:19:50;;;;;;;7.63;5.30;;;20.80;91.40;;;;;;4957863;29;20032;-69
2022/08/09 06:22:16;;;;;;;7.00;5.55;;;20.90;91.30;;;;;;4958384;29;20055;-69
2022/08/09 06:24:42;;;;;;;7.88;5.88;;;21.00;91.00;;;;;;4957863;29;20032;-69
2022/08/09 06:27:07;;;;;;;8.88;5.30;;;21.10;90.70;;;;;;4957902;29;20042;-69
2022/08/09 06:29:33;;;;;;;11.55;5.45;;;21.10;90.60;;;;;;4957714;29;20020;-69
2022/08/09 06:31:58;;;;;;;9.50;5.57;;;21.10;90.60;;;;;;4957648;29;20079;-68
2022/08/09 06:34:24;;;;;;;9.70;5.43;;;21.20;90.40;;;;;;4957903;29;20473;-69
2022/08/09 06:36:50;;;;;;;13.77;6.72;;;21.20;90.40;;;;;;4957080;28;20504;-69
2022/08/09 06:39:16;;;;;;;17.95;5.38;;;21.30;90.30;;;;;;4957793;29;20035;-70
2022/08/09 06:41:42;;;;;;;12.63;6.03;;;21.30;90.10;;;;;;4957592;29;20049;-70
2022/08/09 06:44:07;;;;;;;7.43;5.53;;;21.30;90.00;;;;;;4957385;29;20384;-69
2022/08/09 06:46:33;;;;;;;9.07;5.32;;;21.40;89.70;;;;;;4957522;29;20102;-68
2022/08/09 06:48:59;;;;;;;13.13;5.70;;;21.40;89.80;;;;;;4957535;29;20417;-68
2022/08/09 06:51:24;;;;;;;15.77;5.05;;;21.50;90.10;;;;;;4957272;29;20027;-68
2022/08/09 06:53:50;;;;;;;9.00;5.03;;;21.60;90.00;;;;;;4957475;29;20031;-69
2022/08/09 06:56:15;;;;;;;6.70;4.65;;;21.70;88.30;;;;;;4957570;29;20020;-68
2022/08/09 06:58:41;;;;;;;6.15;3.88;;;21.70;87.50;;;;;;4957767;29;20063;-69
2022/08/09 07:01:07;;;;;;;10.20;5.18;;;21.70;87.10;;;;;;4956020;29;20038;-69
2022/08/09 07:03:33;;;;;;;5.47;4.18;;;21.80;86.40;;;;;;4957948;29;20547;-69
2022/08/09 07:06:00;;;;;;;8.48;4.72;;;21.80;86.50;;;;;;4957710;29;20042;-69
2022/08/09 07:08:25;;;;;;;6.57;4.22;;;21.80;86.70;;;;;;4957232;29;20039;-69
2022/08/09 07:10:51;;;;;;;7.97;4.40;;;21.90;86.20;;;;;;4957139;29;20069;-69
2022/08/09 07:13:17;;;;;;;7.63;4.43;;;21.80;86.10;;;;;;4956791;29;20488;-69
2022/08/09 07:15:43;;;;;;;11.00;5.28;;;22.00;86.00;;;;;;4956814;29;20476;-69
2022/08/09 07:18:08;;;;;;;7.03;3.85;;;22.00;85.60;;;;;;4957027;29;20027;-69
2022/08/09 07:20:34;;;;;;;9.10;3.97;;;22.00;85.70;;;;;;4956948;29;20042;-70
2022/08/09 07:22:59;;;;;;;8.07;3.70;;;22.00;85.50;;;;;;4956712;29;20912;-69
2022/08/09 07:25:25;;;;;;;7.47;3.85;;;22.20;85.40;;;;;;4956893;29;20028;-69
2022/08/09 07:27:51;;;;;;;4.78;3.00;;;22.30;85.10;;;;;;4956313;29;20031;-70
2022/08/09 07:30:16;;;;;;;4.97;3.28;;;22.30;84.50;;;;;;4956933;29;20046;-69
2022/08/09 07:32:42;;;;;;;5.35;2.70;;;22.40;84.40;;;;;;4956508;29;20055;-69
2022/08/09 07:35:10;;;;;;;4.50;2.92;;;22.40;83.90;;;;;;4956515;29;20039;-69
2022/08/09 07:37:35;;;;;;;9.90;3.80;;;22.50;83.40;;;;;;4956237;29;20519;-68
2022/08/09 07:40:02;;;;;;;9.65;3.42;;;22.60;83.30;;;;;;4955324;29;20031;-68
2022/08/09 07:42:27;;;;;;;5.70;2.85;;;22.70;82.90;;;;;;4956232;29;20113;-69
2022/08/09 07:44:53;;;;;;;6.57;3.00;;;22.80;82.20;;;;;;4956484;29;20485;-68
2022/08/09 07:47:19;;;;;;;5.38;2.53;;;23.00;81.10;;;;;;4955602;28;20023;-68
2022/08/09 07:49:45;;;;;;;5.88;2.05;;;23.10;80.10;;;;;;4956531;29;20384;-69
2022/08/09 07:52:10;;;;;;;4.55;2.08;;;23.10;79.90;;;;;;4956267;29;20499;-68
2022/08/09 07:54:37;;;;;;;4.57;1.75;;;23.20;80.00;;;;;;4956246;29;20038;-68
2022/08/09 07:57:03;;;;;;;4.78;1.50;;;23.30;79.90;;;;;;4955904;29;20023;-68
2022/08/09 07:59:28;;;;;;;4.47;2.10;;;23.30;79.70;;;;;;4956096;29;20027;-68
2022/08/09 08:01:54;;;;;;;6.45;2.42;;;23.40;79.20;;;;;;4956109;29;20373;-68
2022/08/09 08:04:21;;;;;;;5.80;2.40;;;23.50;78.80;;;;;;4956108;28;20106;-68
2022/08/09 08:06:47;;;;;;;7.93;2.55;;;23.60;78.90;;;;;;4956282;28;20444;-67
2022/08/09 08:09:12;;;;;;;3.50;1.58;;;23.60;78.20;;;;;;4955936;29;20529;-68
2022/08/09 08:11:38;;;;;;;4.22;1.98;;;23.60;78.30;;;;;;4955739;29;20647;-68
2022/08/09 08:14:04;;;;;;;3.67;1.65;;;23.60;78.20;;;;;;4955829;29;20114;-68
2022/08/09 08:16:30;;;;;;;5.30;1.80;;;23.60;78.40;;;;;;4956041;29;20384;-68
2022/08/09 08:18:56;;;;;;;2.72;1.50;;;23.70;77.30;;;;;;4955893;29;20106;-68
2022/08/09 08:21:22;;;;;;;3.50;1.42;;;23.80;76.50;;;;;;4955881;29;20039;-68
2022/08/09 08:23:48;;;;;;;2.83;1.30;;;23.80;76.60;;;;;;4956382;29;20362;-69
2022/08/09 08:26:13;;;;;;;3.63;1.10;;;23.90;75.30;;;;;;4955720;29;20027;-70
2022/08/09 08:28:39;;;;;;;4.22;1.20;;;23.90;75.50;;;;;;4955736;29;20417;-70
2022/08/09 08:31:05;;;;;;;5.57;0.93;;;24.00;75.40;;;;;;4955770;29;20027;-69
2022/08/09 08:33:30;;;;;;;4.18;1.17;;;24.00;74.50;;;;;;4955531;29;20085;-71
2022/08/09 08:35:56;;;;;;;4.28;1.20;;;24.00;74.20;;;;;;4955485;29;20031;-69
2022/08/09 08:38:21;;;;;;;2.80;0.90;;;24.10;74.00;;;;;;4955417;29;20154;-69
2022/08/09 08:40:48;;;;;;;3.42;0.90;;;24.10;73.20;;;;;;4955299;29;20039;-70
2022/08/09 08:43:14;;;;;;;2.03;0.80;;;24.10;73.10;;;;;;4955393;29;20110;-70
2022/08/09 08:45:48;;;;;;;2.85;0.85;;;24.10;72.70;;;;;;4955584;29;20481;-70
2022/08/09 08:48:13;;;;;;;3.45;0.95;;;24.20;73.00;;;;;;4955298;29;20034;-69
2022/08/09 08:50:39;;;;;;;4.85;1.13;;;24.20;73.00;;;;;;4955440;29;20035;-68
2022/08/09 08:53:05;;;;;;;3.83;0.82;;;24.30;72.50;;;;;;4955509;29;20027;-67
2022/08/09 08:55:31;;;;;;;4.05;0.85;;;24.30;72.50;;;;;;4955032;29;20055;-67
2022/08/09 08:57:56;;;;;;;2.70;0.60;;;24.30;72.60;;;;;;4954910;28;20059;-68
2022/08/09 09:00:22;;;;;;;5.07;1.02;;;24.20;72.50;;;;;;4954622;29;20031;-67
2022/08/09 09:02:49;;;;;;;3.10;0.85;;;24.20;72.30;;;;;;4955230;29;20046;-67
2022/08/09 09:05:23;;;;;;;2.92;0.82;;;24.30;70.70;;;;;;4955493;29;20031;-68
2022/08/09 09:07:49;;;;;;;1.50;0.63;;;24.30;70.80;;;;;;4955096;29;20030;-68
2022/08/09 09:10:16;;;;;;;4.30;0.75;;;24.30;70.50;;;;;;4954750;29;20047;-67
2022/08/09 09:12:44;;;;;;;4.28;0.70;;;24.30;70.50;;;;;;4953804;29;20031;-68
2022/08/09 09:15:09;;;;;;;4.63;0.65;;;24.30;70.70;;;;;;4955036;29;20391;-68
2022/08/09 09:17:36;;;;;;;2.83;0.65;;;24.30;70.60;;;;;;4955103;29;20031;-68
2022/08/09 09:20:10;;;;;;;2.13;0.70;;;24.30;70.30;;;;;;4954796;29;20496;-68
2022/08/09 09:22:50;;;;;;;2.40;0.75;;;24.30;70.60;;;;;;4955089;29;20023;-68
2022/08/09 09:25:40;;;;;;;4.00;0.88;;;24.40;70.40;;;;;;4954752;29;20024;-68
2022/08/09 09:28:06;;;;;;;3.20;0.80;;;24.30;69.40;;;;;;4954941;29;20023;-68
2022/08/09 09:30:34;;;;;;;3.22;0.70;;;24.40;69.40;;;;;;4955028;29;20039;-69
2022/08/09 09:33:11;;;;;;;1.77;0.65;;;24.40;68.90;;;;;;4954744;29;20023;-68
2022/08/09 09:36:04;;;;;;;3.40;0.52;;;24.40;69.30;;;;;;4954557;29;20039;-68
2022/08/09 09:38:48;;;;;;;3.75;0.98;;;24.40;69.50;;;;;;4952973;29;20043;-66
2022/08/09 09:41:22;;;;;;;1.30;0.38;;;24.70;67.20;;;;;;4954971;28;20121;-67
2022/08/09 09:43:49;;;;;;;1.65;0.55;;;24.80;66.20;;;;;;4954984;29;20034;-68
2022/08/09 09:46:15;;;;;;;2.70;0.77;;;24.90;66.00;;;;;;4954910;29;20079;-68
2022/08/09 09:48:55;;;;;;;3.72;0.57;;;24.90;66.50;;;;;;4954871;29;20023;-69
2022/08/09 09:51:21;;;;;;;3.90;0.60;;;24.90;65.80;;;;;;4954818;28;20428;-69
2022/08/09 09:54:05;;;;;;;1.02;0.40;;;24.90;65.10;;;;;;4954481;29;20024;-69
2022/08/09 09:56:40;;;;;;;1.42;0.30;;;25.00;64.80;;;;;;4954806;29;20026;-69
2022/08/09 09:59:07;;;;;;;2.78;0.80;;;24.90;65.00;;;;;;4954468;29;20075;-69
2022/08/09 10:01:33;;;;;;;1.42;0.50;;;25.00;64.80;;;;;;4954702;29;20118;-69
2022/08/09 10:03:59;;;;;;;2.50;0.70;;;25.00;64.90;;;;;;4954788;29;20074;-69
2022/08/09 10:06:26;;;;;;;1.13;0.55;;;24.90;65.10;;;;;;4954291;29;20035;-70
2022/08/09 10:08:59;;;;;;;3.20;0.70;;;25.00;64.90;;;;;;4954388;28;20473;-69
2022/08/09 10:11:30;;;;;;;3.22;0.32;;;25.00;65.30;;;;;;4957139;28;20023;-67
2022/08/09 10:13:58;;;;;;;2.30;0.52;;;25.00;65.20;;;;;;4958203;29;20445;-67
2022/08/09 10:16:36;;;;;;;3.67;0.50;;;25.00;65.20;;;;;;4958111;28;20428;-69
2022/08/09 10:19:07;;;;;;;1.73;0.45;;;25.00;64.70;;;;;;4958183;28;20432;-69
2022/08/09 10:21:33;;;;;;;3.10;0.70;;;25.00;64.80;;;;;;4957570;29;20031;-69
2022/08/09 10:24:03;;;;;;;2.88;0.60;;;25.10;65.00;;;;;;4957912;29;20290;-68
2022/08/09 10:26:30;;;;;;;1.70;0.73;;;25.10;64.60;;;;;;4957779;28;20097;-69
2022/08/09 10:28:57;;;;;;;3.25;0.52;;;25.10;65.20;;;;;;4957931;29;20162;-70
2022/08/09 10:31:23;;;;;;;4.55;0.60;;;25.10;64.80;;;;;;4957724;28;20063;-69
2022/08/09 10:33:50;;;;;;;1.70;0.63;;;25.10;64.90;;;;;;4957919;29;20037;-69
2022/08/09 10:36:16;;;;;;;2.83;0.75;;;25.10;64.90;;;;;;4957237;29;20042;-69
2022/08/09 10:38:44;;;;;;;1.92;0.65;;;25.10;65.20;;;;;;4957721;29;20093;-69
2022/08/09 10:41:11;;;;;;;2.92;0.47;;;25.10;65.00;;;;;;4957486;29;20087;-68
2022/08/09 10:43:42;;;;;;;2.20;0.70;;;25.10;64.80;;;;;;4957884;28;20023;-69
2022/08/09 10:46:31;;;;;;;2.80;0.52;;;25.20;65.00;;;;;;4957557;29;20038;-69
2022/08/09 10:49:06;;;;;;;3.78;0.75;;;25.10;65.10;;;;;;4957778;28;20027;-69
2022/08/09 10:51:42;;;;;;;3.15;0.73;;;25.10;65.10;;;;;;4957215;29;20046;-67
2022/08/09 10:54:12;;;;;;;2.38;0.60;;;25.10;65.10;;;;;;4957713;28;20030;-67
2022/08/09 10:56:40;;;;;;;3.03;0.60;;;25.10;65.20;;;;;;4957181;29;20058;-67
2022/08/09 10:59:24;;;;;;;2.22;0.80;;;25.10;65.50;;;;;;4957439;29;20523;-67
2022/08/09 11:01:51;;;;;;;2.50;0.65;;;25.10;65.30;;;;;;4957323;28;20423;-66
2022/08/09 11:04:22;;;;;;;1.98;0.60;;;25.10;65.40;;;;;;4957451;29;20491;-68
2022/08/09 11:07:09;;;;;;;1.80;0.60;;;25.10;65.40;;;;;;4956725;29;20114;-67
2022/08/09 11:09:37;;;;;;;1.95;0.45;;;25.10;65.00;;;;;;4957123;29;20029;-67
2022/08/09 11:12:20;;;;;;;3.67;0.57;;;25.10;65.30;;;;;;4957017;29;20042;-67
2022/08/09 11:14:54;;;;;;;2.33;0.40;;;25.10;65.70;;;;;;4957423;29;20020;-68
2022/08/09 11:17:19;;;;;;;3.25;1.02;;;25.10;65.60;;;;;;4956773;29;20380;-67
2022/08/09 11:19:52;;;;;;;5.47;0.60;;;25.10;65.70;;;;;;4956751;29;20023;-67
2022/08/09 11:22:18;;;;;;;3.88;0.80;;;25.10;65.90;;;;;;4955764;28;20035;-68
2022/08/09 11:25:04;;;;;;;2.35;0.77;;;25.20;65.60;;;;;;4956864;29;20031;-69
2022/08/09 11:27:37;;;;;;;2.88;0.80;;;25.10;65.50;;;;;;4956748;28;20547;-67
2022/08/09 11:30:26;;;;;;;1.50;0.60;;;25.20;65.30;;;;;;4956797;29;20491;-68
2022/08/09 11:33:03;;;;;;;2.78;0.57;;;25.20;65.30;;;;;;4952858;29;20050;-67
2022/08/09 11:35:45;;;;;;;1.52;0.43;;;25.30;65.40;;;;;;4956166;29;20118;-67
2022/08/09 11:38:16;;;;;;;4.50;0.70;;;25.20;65.70;;;;;;4956470;29;20023;-69
2022/08/09 11:40:43;;;;;;;1.25;0.82;;;25.30;65.70;;;;;;4956539;29;20035;-67
2022/08/09 11:43:13;;;;;;;1.35;0.55;;;25.20;66.30;;;;;;4956418;29;20034;-67
2022/08/09 11:45:41;;;;;;;3.00;0.60;;;25.20;65.80;;;;;;4956466;29;20033;-67
2022/08/09 11:48:21;;;;;;;4.93;0.50;;;25.20;65.70;;;;;;4956451;28;20031;-67
2022/08/09 11:50:56;;;;;;;2.17;0.45;;;25.10;66.20;;;;;;4971399;28;20031;-68
2022/08/09 11:53:23;;;;;;;2.95;0.65;;;25.20;66.10;;;;;;4956181;29;20031;-68
2022/08/09 11:55:51;;;;;;;2.97;0.60;;;25.20;65.60;;;;;;4956133;29;20504;-67
2022/08/09 11:58:16;;;;;;;1.48;0.40;;;25.30;65.80;;;;;;4956433;28;20106;-67
2022/08/09 12:00:50;;;;;;;4.43;0.73;;;25.20;66.10;;;;;;4956094;29;20111;-67
2022/08/09 12:03:18;;;;;;;2.28;0.60;;;25.20;66.50;;;;;;4955727;29;20381;-67
2022/08/09 12:05:44;;;;;;;1.85;0.38;;;25.20;65.40;;;;;;4956097;28;20035;-67
2022/08/09 12:08:11;;;;;;;3.00;0.50;;;25.20;66.00;;;;;;4955912;28;20023;-67
2022/08/09 12:10:52;;;;;;;2.53;0.47;;;25.20;65.40;;;;;;4956065;29;20417;-67
2022/08/09 12:13:34;;;;;;;1.75;0.68;;;25.20;64.80;;;;;;4955887;28;20027;-67
2022/08/09 12:16:05;;;;;;;1.92;0.50;;;25.30;65.00;;;;;;4956049;29;20039;-67
2022/08/09 12:18:32;;;;;;;3.50;0.60;;;25.30;65.30;;;;;;4955595;28;20027;-67
2022/08/09 12:20:58;;;;;;;1.45;0.50;;;25.30;64.90;;;;;;4955884;28;20393;-68
2022/08/09 12:23:24;;;;;;;4.47;0.57;;;25.30;64.70;;;;;;4955670;28;20155;-69
2022/08/09 12:25:52;;;;;;;0.95;0.30;;;25.30;66.00;;;;;;4955858;29;20452;-70
2022/08/09 12:28:21;;;;;;;2.10;0.47;;;25.20;66.40;;;;;;4955753;29;20034;-69
2022/08/09 12:30:47;;;;;;;1.83;0.38;;;25.20;65.80;;;;;;4955714;28;20094;-67
2022/08/09 12:33:14;;;;;;;1.23;0.50;;;25.30;64.70;;;;;;4955136;28;20031;-68
2022/08/09 12:35:40;;;;;;;1.83;0.50;;;25.30;65.20;;;;;;4955389;29;20035;-70
2022/08/09 12:38:29;;;;;;;1.63;0.25;;;25.30;64.00;;;;;;4954210;29;20439;-68
2022/08/09 12:40:57;;;;;;;1.20;0.22;;;25.30;64.60;;;;;;4955672;28;20036;-68
2022/08/09 12:43:27;;;;;;;1.85;0.50;;;25.30;64.10;;;;;;4955290;29;20020;-68
2022/08/09 12:45:54;;;;;;;3.03;0.30;;;25.50;64.00;;;;;;4955517;29;20034;-68
2022/08/09 12:48:20;;;;;;;2.70;0.40;;;25.50;63.80;;;;;;4955044;29;20019;-69
2022/08/09 12:50:47;;;;;;;2.30;0.68;;;25.40;64.10;;;;;;4955521;29;20023;-69
2022/08/09 12:53:37;;;;;;;4.18;0.60;;;25.40;63.60;;;;;;4955181;29;20023;-69